Fontana Observed Data For Previous 48 Hours

Caption
Day and Hour Reservoir Elevation (behind dam)* Tailwater Elevation (below dam)* Average Hourly Discharge*
10/16/2017 2 AM EDT 1,678.51 1,272.80 0
10/16/2017 3 AM EDT 1,678.56 1,272.64 0
10/16/2017 4 AM EDT 1,678.55 1,272.57 0
10/16/2017 5 AM EDT 1,678.58 1,272.53 0
10/16/2017 6 AM EDT 1,678.63 1,272.52 0
10/16/2017 7 AM EDT 1,678.61 1,272.54 0
10/16/2017 8 AM EDT 1,678.61 1,275.61 241
10/16/2017 9 AM EDT 1,678.63 1,280.48 7,707
10/16/2017 10 AM EDT 1,678.57 1,280.66 7,961
10/16/2017 11 AM EDT 1,678.49 1,280.61 8,661
10/16/2017 12 PM EDT 1,678.46 1,280.63 8,455
10/16/2017 1 PM EDT 1,678.41 1,280.06 7,864
10/16/2017 2 PM EDT 1,678.36 1,280.58 8,423
10/16/2017 3 PM EDT 1,678.30 1,280.50 8,322
10/16/2017 4 PM EDT 1,678.27 1,280.64 8,167
10/16/2017 5 PM EDT 1,678.22 1,280.25 7,995
10/16/2017 6 PM EDT 1,678.17 1,280.64 8,416
10/16/2017 7 PM EDT 1,678.11 1,280.80 8,710
10/16/2017 8 PM EDT 1,678.07 1,280.62 8,794
10/16/2017 9 PM EDT 1,678.02 1,280.29 8,447
10/16/2017 10 PM EDT 1,677.97 1,280.04 8,330
10/16/2017 11 PM EDT 1,677.92 1,280.14 8,303
10/17/2017 12 AM EDT 1,677.88 1,280.07 8,323
10/17/2017 1 AM EDT 1,677.86 1,275.75 6,377
10/17/2017 2 AM EDT 1,677.84 1,273.96 0
10/17/2017 3 AM EDT 1,677.87 1,273.40 0
10/17/2017 4 AM EDT 1,677.91 1,272.87 0
10/17/2017 5 AM EDT 1,677.89 1,272.63 0
10/17/2017 6 AM EDT 1,677.92 1,272.56 0
10/17/2017 7 AM EDT 1,677.95 1,272.53 0
10/17/2017 8 AM EDT 1,677.94 1,275.43 216
10/17/2017 9 AM EDT 1,677.93 1,280.05 7,570
10/17/2017 10 AM EDT 1,677.85 1,280.59 8,488
10/17/2017 11 AM EDT 1,677.77 1,280.68 8,971
10/17/2017 12 PM EDT 1,677.74 1,280.22 8,653
10/17/2017 1 PM EDT 1,677.68 1,280.76 8,754
10/17/2017 2 PM EDT 1,677.61 1,280.91 8,785
10/17/2017 3 PM EDT 1,677.56 1,280.56 8,791
10/17/2017 4 PM EDT 1,677.50 1,280.83 8,581
10/17/2017 5 PM EDT 1,677.43 1,280.71 8,626
10/17/2017 6 PM EDT 1,677.38 1,280.12 8,375
10/17/2017 7 PM EDT 1,677.32 1,280.69 8,306
10/17/2017 8 PM EDT 1,677.27 1,280.13 8,561
10/17/2017 9 PM EDT 1,677.22 1,280.10 7,779
10/17/2017 10 PM EDT 1,677.18 1,280.09 8,412
10/17/2017 11 PM EDT 1,677.12 1,280.31 8,752
10/18/2017 12 AM EDT 1,677.05 1,280.17 8,230
10/18/2017 1 AM EDT 1,677.01 1,280.19 8,394
10/18/2017 2 AM EDT 1,676.99 1,277.06 3,095
10/18/2017 3 AM EDT 1,677.00 1,273.01 81
10/18/2017 4 AM EDT 1,677.03 1,272.66 0
10/18/2017 5 AM EDT 1,677.03 1,274.91 154
10/18/2017 6 AM EDT 1,677.02 1,277.01 3,097
10/18/2017 7 AM EDT 1,677.01 1,277.00 3,053
10/18/2017 8 AM EDT 1,677.00 1,276.99 2,887
10/18/2017 9 AM EDT 1,677.00 1,276.78 2,685
10/18/2017 10 AM EDT 1,676.99 1,276.91 2,897
10/18/2017 11 AM EDT 1,676.98 1,276.86 2,874
10/18/2017 12 PM EDT 1,676.98 1,276.67 2,717
10/18/2017 1 PM EDT 1,676.97 1,277.11 2,911
10/18/2017 2 PM EDT 1,676.97 1,276.89 2,912
10/18/2017 3 PM EDT 1,676.96 1,276.83 2,881
10/18/2017 4 PM EDT 1,676.94 1,277.62 2,823
10/18/2017 5 PM EDT 1,676.94 1,279.26 5,620
10/18/2017 6 PM EDT 1,676.89 1,279.12 5,795
10/18/2017 7 PM EDT 1,676.86 1,279.02 5,221

Elevations are in feet above sea level. Discharges are in cubic feet per second and are reported at the end of the hour.